Time,TemperatureF,DewpointF,PressureIn,WindDirection,WindDirectionDegrees,WindSpeedMPH,WindSpeedGustMPH,Humidity,HourlyPrecipIn,Conditions,Clouds,dailyrainin,SoftwareType,DateUTC
2013-08-18 00:01:00,48.2,43.6,30.30,NNW,338,0.0,0.0,84,0.00,,,0.00,WUHU216HW,2013-08-18 04:01:00,
2013-08-18 00:06:00,47.9,43.3,30.30,NNW,338,0.0,0.0,84,0.00,,,0.00,WUHU216HW,2013-08-18 04:06:00,
2013-08-18 00:11:00,47.9,43.6,30.30,NNW,338,0.0,0.0,85,0.00,,,0.00,WUHU216HW,2013-08-18 04:11:00,
2013-08-18 00:16:00,47.9,43.6,30.30,NNW,338,0.0,0.0,85,0.00,,,0.00,WUHU216HW,2013-08-18 04:16:00,
2013-08-18 00:21:00,47.7,43.4,30.30,NNW,338,0.9,0.9,85,0.00,,,0.00,WUHU216HW,2013-08-18 04:21:00,
2013-08-18 00:26:00,47.7,43.8,30.30,NNW,338,0.4,0.9,86,0.00,,,0.00,WUHU216HW,2013-08-18 04:26:00,
2013-08-18 00:31:00,47.5,43.6,30.30,NNW,338,0.0,0.9,86,0.00,,,0.00,WUHU216HW,2013-08-18 04:31:00,
2013-08-18 00:36:00,47.3,43.4,30.30,NNW,338,0.0,0.4,86,0.00,,,0.00,WUHU216HW,2013-08-18 04:36:00,
2013-08-18 00:41:00,47.3,43.4,30.30,NNW,338,0.0,0.0,86,0.00,,,0.00,WUHU216HW,2013-08-18 04:41:00,
2013-08-18 00:46:00,47.2,43.2,30.31,North,0,0.0,0.4,86,0.00,,,0.00,WUHU216HW,2013-08-18 04:46:00,
2013-08-18 00:51:00,47.2,43.2,30.30,North,0,0.0,0.4,86,0.00,,,0.00,WUHU216HW,2013-08-18 04:51:00,
2013-08-18 00:56:00,47.2,43.2,30.30,North,0,0.0,0.0,86,0.00,,,0.00,WUHU216HW,2013-08-18 04:56:00,
2013-08-18 01:01:00,47.2,43.2,30.30,North,0,0.0,0.0,86,0.00,,,0.00,WUHU216HW,2013-08-18 05:01:00,
2013-08-18 01:06:00,47.2,43.2,30.31,North,0,0.0,0.0,86,0.00,,,0.00,WUHU216HW,2013-08-18 05:06:00,
2013-08-18 01:11:00,47.2,43.2,30.31,NW,315,0.0,0.0,86,0.00,,,0.00,WUHU216HW,2013-08-18 05:11:00,
2013-08-18 01:16:00,47.3,43.7,30.31,North,0,1.8,1.8,87,0.00,,,0.00,WUHU216HW,2013-08-18 05:16:00,
2013-08-18 01:21:00,47.7,44.0,30.31,North,0,0.7,1.8,87,0.00,,,0.00,WUHU216HW,2013-08-18 05:21:00,
2013-08-18 01:26:00,47.5,43.8,30.31,North,0,0.0,1.8,87,0.00,,,0.00,WUHU216HW,2013-08-18 05:26:00,
2013-08-18 01:31:00,47.3,43.7,30.31,North,0,0.0,0.7,87,0.00,,,0.00,WUHU216HW,2013-08-18 05:31:00,
2013-08-18 01:36:00,47.3,43.7,30.31,North,0,0.4,0.7,87,0.00,,,0.00,WUHU216HW,2013-08-18 05:36:00,
2013-08-18 01:41:00,47.5,44.2,30.31,NNE,23,0.2,0.7,88,0.00,,,0.00,WUHU216HW,2013-08-18 05:41:00,
2013-08-18 01:46:00,47.5,44.2,30.30,NNE,23,0.4,0.9,88,0.00,,,0.00,WUHU216HW,2013-08-18 05:46:00,
2013-08-18 01:51:00,47.5,44.2,30.30,NNE,23,0.0,0.9,88,0.00,,,0.00,WUHU216HW,2013-08-18 05:51:00,
2013-08-18 01:56:00,47.7,44.4,30.30,NNE,23,0.0,0.4,88,0.00,,,0.00,WUHU216HW,2013-08-18 05:56:00,
2013-08-18 02:01:00,47.7,44.4,30.30,NNE,23,0.0,0.0,88,0.00,,,0.00,WUHU216HW,2013-08-18 06:01:00,
2013-08-18 02:06:00,47.7,44.4,30.30,NNE,23,0.0,0.0,88,0.00,,,0.00,WUHU216HW,2013-08-18 06:06:00,
2013-08-18 02:11:00,47.9,44.6,30.30,WNW,293,0.0,0.0,88,0.00,,,0.00,WUHU216HW,2013-08-18 06:11:00,
2013-08-18 02:16:00,47.9,44.6,30.30,NW,315,0.0,0.0,88,0.00,,,0.00,WUHU216HW,2013-08-18 06:16:00,
2013-08-18 02:21:00,48.2,44.9,30.30,NW,315,0.0,0.0,88,0.00,,,0.00,WUHU216HW,2013-08-18 06:21:00,
2013-08-18 02:26:00,48.2,44.9,30.30,NW,315,0.0,0.0,88,0.00,,,0.00,WUHU216HW,2013-08-18 06:26:00,
2013-08-18 02:31:00,48.2,44.9,30.30,NW,315,0.4,0.7,88,0.00,,,0.00,WUHU216HW,2013-08-18 06:31:00,
2013-08-18 02:36:00,48.4,45.1,30.29,NNW,338,0.0,0.7,88,0.00,,,0.00,WUHU216HW,2013-08-18 06:36:00,
2013-08-18 02:41:00,48.6,45.2,30.29,North,0,0.7,0.9,88,0.00,,,0.00,WUHU216HW,2013-08-18 06:41:00,
2013-08-18 02:46:00,48.6,45.2,30.29,North,0,0.4,1.1,88,0.00,,,0.00,WUHU216HW,2013-08-18 06:46:00,
2013-08-18 02:51:00,48.4,45.4,30.29,North,0,0.7,1.1,89,0.00,,,0.00,WUHU216HW,2013-08-18 06:51:00,
2013-08-18 02:56:00,48.2,45.2,30.29,NNW,338,0.2,0.9,89,0.00,,,0.00,WUHU216HW,2013-08-18 06:56:00,
2013-08-18 03:01:00,48.2,45.2,30.29,NNW,338,0.9,1.1,89,0.00,,,0.00,WUHU216HW,2013-08-18 07:01:00,
2013-08-18 03:06:00,48.4,45.4,30.29,NNW,338,0.4,1.3,89,0.00,,,0.00,WUHU216HW,2013-08-18 07:06:00,
2013-08-18 03:11:00,48.8,45.7,30.29,NNW,338,1.1,1.8,89,0.00,,,0.00,WUHU216HW,2013-08-18 07:11:00,
2013-08-18 03:16:00,48.6,45.5,30.29,North,0,0.9,1.8,89,0.00,,,0.00,WUHU216HW,2013-08-18 07:16:00,
2013-08-18 03:21:00,48.4,45.4,30.29,North,0,1.1,1.3,89,0.00,,,0.00,WUHU216HW,2013-08-18 07:21:00,
2013-08-18 03:26:00,48.4,45.4,30.29,NW,315,1.1,1.1,89,0.00,,,0.00,WUHU216HW,2013-08-18 07:26:00,
2013-08-18 03:31:00,48.4,45.4,30.29,NNW,338,0.9,1.3,89,0.00,,,0.00,WUHU216HW,2013-08-18 07:31:00,
2013-08-18 03:36:00,48.2,45.2,30.29,NNW,338,0.0,1.3,89,0.00,,,0.00,WUHU216HW,2013-08-18 07:36:00,
2013-08-18 03:41:00,48.2,45.2,30.29,NNW,338,0.4,1.1,89,0.00,,,0.00,WUHU216HW,2013-08-18 07:41:00,
2013-08-18 03:46:00,48.1,45.0,30.29,NNW,338,0.0,1.1,89,0.00,,,0.00,WUHU216HW,2013-08-18 07:46:00,
2013-08-18 03:51:00,47.9,44.8,30.29,NNW,338,0.0,0.4,89,0.00,,,0.00,WUHU216HW,2013-08-18 07:51:00,
2013-08-18 03:56:00,47.9,44.8,30.30,North,0,0.0,0.7,89,0.00,,,0.00,WUHU216HW,2013-08-18 07:56:00,
2013-08-18 04:01:00,47.9,44.8,30.30,NW,315,0.9,1.1,89,0.00,,,0.00,WUHU216HW,2013-08-18 08:01:00,
2013-08-18 04:06:00,47.9,44.8,30.30,NNW,338,0.4,1.1,89,0.00,,,0.00,WUHU216HW,2013-08-18 08:06:00,
2013-08-18 04:11:00,47.9,44.8,30.30,North,0,0.4,1.1,89,0.00,,,0.00,WUHU216HW,2013-08-18 08:11:00,
2013-08-18 04:16:00,47.9,44.8,30.30,North,0,0.2,0.9,89,0.00,,,0.00,WUHU216HW,2013-08-18 08:16:00,
2013-08-18 04:21:00,47.9,44.8,30.30,NW,315,0.9,1.1,89,0.00,,,0.00,WUHU216HW,2013-08-18 08:21:00,
2013-08-18 04:26:00,47.9,44.8,30.29,North,0,0.2,1.1,89,0.00,,,0.00,WUHU216HW,2013-08-18 08:26:00,
2013-08-18 04:31:00,47.9,44.8,30.29,North,0,0.9,1.1,89,0.00,,,0.00,WUHU216HW,2013-08-18 08:31:00,
2013-08-18 04:36:00,47.9,44.8,30.29,NNW,338,0.0,1.1,89,0.00,,,0.00,WUHU216HW,2013-08-18 08:36:00,
2013-08-18 04:41:00,47.9,44.8,30.29,NNW,338,1.1,1.1,89,0.00,,,0.00,WUHU216HW,2013-08-18 08:41:00,
2013-08-18 04:46:00,47.5,44.5,30.29,NW,315,0.7,1.1,89,0.00,,,0.00,WUHU216HW,2013-08-18 08:46:00,
2013-08-18 04:51:00,47.3,44.4,30.30,NW,315,0.9,1.1,89,0.00,,,0.00,WUHU216HW,2013-08-18 08:51:00,
2013-08-18 04:56:00,47.3,44.4,30.30,NNW,338,0.4,1.1,89,0.00,,,0.00,WUHU216HW,2013-08-18 08:56:00,
2013-08-18 05:01:00,47.3,44.4,30.30,North,0,0.0,1.1,89,0.00,,,0.00,WUHU216HW,2013-08-18 09:01:00,
2013-08-18 05:06:00,47.5,44.5,30.30,North,0,0.0,0.9,89,0.00,,,0.00,WUHU216HW,2013-08-18 09:06:00,
2013-08-18 05:11:00,47.3,44.6,30.29,North,0,0.7,1.1,90,0.00,,,0.00,WUHU216HW,2013-08-18 09:11:00,
2013-08-18 05:16:00,47.2,44.5,30.29,NNW,338,0.4,1.1,90,0.00,,,0.00,WUHU216HW,2013-08-18 09:16:00,
2013-08-18 05:21:00,47.2,44.5,30.29,NNW,338,0.0,0.7,90,0.00,,,0.00,WUHU216HW,2013-08-18 09:21:00,
2013-08-18 05:26:00,47.0,44.3,30.30,North,0,0.0,0.7,90,0.00,,,0.00,WUHU216HW,2013-08-18 09:26:00,
2013-08-18 05:31:00,47.0,44.3,30.30,North,0,0.0,0.4,90,0.00,,,0.00,WUHU216HW,2013-08-18 09:31:00,
2013-08-18 05:36:00,46.8,44.1,30.29,NNW,338,0.4,0.4,90,0.00,,,0.00,WUHU216HW,2013-08-18 09:36:00,
2013-08-18 05:41:00,46.8,44.1,30.29,North,0,0.9,0.9,90,0.00,,,0.00,WUHU216HW,2013-08-18 09:41:00,
2013-08-18 05:46:00,46.8,44.1,30.29,North,0,0.4,0.9,90,0.00,,,0.00,WUHU216HW,2013-08-18 09:46:00,
2013-08-18 05:51:00,46.8,44.1,30.29,North,0,0.4,0.9,90,0.00,,,0.00,WUHU216HW,2013-08-18 09:51:00,
2013-08-18 05:56:00,47.2,44.5,30.29,NW,315,0.4,1.1,90,0.00,,,0.00,WUHU216HW,2013-08-18 09:56:00,
2013-08-18 06:01:00,47.2,44.5,30.30,NW,315,0.7,1.1,90,0.00,,,0.00,WUHU216HW,2013-08-18 10:01:00,
2013-08-18 06:06:00,47.0,44.3,30.30,North,0,0.0,1.1,90,0.00,,,0.00,WUHU216HW,2013-08-18 10:06:00,
2013-08-18 06:11:00,47.0,44.3,30.29,NNE,23,0.0,1.1,90,0.00,,,0.00,WUHU216HW,2013-08-18 10:11:00,
2013-08-18 06:16:00,47.0,44.3,30.30,NNW,338,0.0,1.1,90,0.00,,,0.00,WUHU216HW,2013-08-18 10:16:00,
2013-08-18 06:21:00,46.8,44.1,30.30,NE,45,0.0,0.4,90,0.00,,,0.00,WUHU216HW,2013-08-18 10:21:00,
2013-08-18 06:26:00,46.8,44.1,30.30,NNE,23,0.0,0.7,90,0.00,,,0.00,WUHU216HW,2013-08-18 10:26:00,
2013-08-18 06:31:00,46.8,44.1,30.30,NNE,23,0.0,0.7,90,0.00,,,0.00,WUHU216HW,2013-08-18 10:31:00,
2013-08-18 06:36:00,47.0,44.3,30.30,NNE,23,0.0,0.2,90,0.00,,,0.00,WUHU216HW,2013-08-18 10:36:00,
2013-08-18 06:41:00,47.2,44.5,30.30,NE,45,1.8,1.8,90,0.00,,,0.00,WUHU216HW,2013-08-18 10:41:00,
2013-08-18 06:46:00,47.2,44.5,30.30,NE,45,0.0,1.8,90,0.00,,,0.00,WUHU216HW,2013-08-18 10:46:00,
2013-08-18 06:51:00,47.3,44.6,30.29,NE,45,1.6,2.0,90,0.00,,,0.00,WUHU216HW,2013-08-18 10:51:00,
2013-08-18 06:56:00,47.3,44.9,30.30,East,90,0.9,2.0,91,0.00,,,0.00,WUHU216HW,2013-08-18 10:56:00,
2013-08-18 07:01:00,47.3,44.9,30.29,ENE,68,2.2,2.2,91,0.00,,,0.00,WUHU216HW,2013-08-18 11:01:00,
2013-08-18 07:06:00,47.3,44.9,30.29,ENE,68,0.2,2.2,91,0.00,,,0.00,WUHU216HW,2013-08-18 11:06:00,
2013-08-18 07:11:00,47.5,45.1,30.29,East,90,2.0,2.2,91,0.00,,,0.00,WUHU216HW,2013-08-18 11:11:00,
2013-08-18 07:16:00,47.5,45.1,30.30,NE,45,1.6,2.5,91,0.00,,,0.00,WUHU216HW,2013-08-18 11:16:00,
2013-08-18 07:21:00,47.9,45.5,30.30,NNE,23,1.3,2.5,91,0.00,,,0.00,WUHU216HW,2013-08-18 11:21:00,
2013-08-18 07:26:00,48.2,45.8,30.30,NE,45,1.8,1.8,91,0.00,,,0.00,WUHU216HW,2013-08-18 11:26:00,
2013-08-18 07:31:00,48.6,46.2,30.30,NE,45,2.0,2.2,91,0.00,,,0.00,WUHU216HW,2013-08-18 11:31:00,
2013-08-18 07:36:00,48.6,46.2,30.30,North,0,0.9,2.2,91,0.00,,,0.00,WUHU216HW,2013-08-18 11:36:00,
2013-08-18 07:41:00,48.6,46.2,30.30,ENE,68,1.6,2.2,91,0.00,,,0.00,WUHU216HW,2013-08-18 11:41:00,
2013-08-18 07:46:00,48.4,46.0,30.30,East,90,1.3,2.5,91,0.00,,,0.00,WUHU216HW,2013-08-18 11:46:00,
2013-08-18 07:51:00,48.4,46.0,30.30,ESE,113,1.1,2.5,91,0.00,,,0.00,WUHU216HW,2013-08-18 11:51:00,
2013-08-18 07:56:00,48.6,46.2,30.30,NNW,338,0.7,2.5,91,0.00,,,0.00,WUHU216HW,2013-08-18 11:56:00,
2013-08-18 08:01:00,49.1,46.6,30.29,NNW,338,0.4,2.2,91,0.00,,,0.00,WUHU216HW,2013-08-18 12:01:00,
2013-08-18 08:06:00,49.5,47.0,30.30,WSW,248,1.1,2.2,91,0.00,,,0.00,WUHU216HW,2013-08-18 12:06:00,
2013-08-18 08:11:00,49.9,47.3,30.30,NW,315,1.6,1.8,91,0.00,,,0.00,WUHU216HW,2013-08-18 12:11:00,
2013-08-18 08:16:00,50.2,47.6,30.29,NNE,23,1.8,1.8,91,0.00,,,0.00,WUHU216HW,2013-08-18 12:16:00,
2013-08-18 08:21:00,50.9,48.1,30.30,WSW,248,0.0,2.0,90,0.00,,,0.00,WUHU216HW,2013-08-18 12:21:00,
2013-08-18 08:26:00,51.3,48.4,30.29,ESE,113,0.0,2.0,90,0.00,,,0.00,WUHU216HW,2013-08-18 12:26:00,
2013-08-18 08:31:00,51.8,49.2,30.29,WNW,293,0.4,1.6,91,0.00,,,0.00,WUHU216HW,2013-08-18 12:31:00,
2013-08-18 08:36:00,52.2,49.3,30.30,West,270,0.7,1.8,90,0.00,,,0.00,WUHU216HW,2013-08-18 12:36:00,
2013-08-18 08:41:00,52.6,49.4,30.29,SE,135,0.0,1.8,89,0.00,,,0.00,WUHU216HW,2013-08-18 12:41:00,
2013-08-18 08:46:00,52.7,49.2,30.30,South,180,0.0,1.3,88,0.00,,,0.00,WUHU216HW,2013-08-18 12:46:00,
2013-08-18 08:51:00,53.6,50.1,30.29,South,180,0.0,1.1,88,0.00,,,0.00,WUHU216HW,2013-08-18 12:51:00,
2013-08-18 08:56:00,54.5,51.0,30.29,ENE,68,1.3,1.3,88,0.00,,,0.00,WUHU216HW,2013-08-18 12:56:00,
2013-08-18 09:01:00,55.4,51.3,30.29,ENE,68,0.4,2.0,86,0.00,,,0.00,WUHU216HW,2013-08-18 13:01:00,
2013-08-18 09:06:00,56.0,51.9,30.29,SSW,203,0.4,2.0,86,0.00,,,0.00,WUHU216HW,2013-08-18 13:06:00,
2013-08-18 09:11:00,56.5,51.7,30.29,East,90,1.6,2.0,84,0.00,,,0.00,WUHU216HW,2013-08-18 13:11:00,
2013-08-18 09:16:00,57.2,52.4,30.29,NE,45,1.8,2.0,84,0.00,,,0.00,WUHU216HW,2013-08-18 13:16:00,
2013-08-18 09:21:00,57.6,52.5,30.29,ESE,113,1.1,2.0,83,0.00,,,0.00,WUHU216HW,2013-08-18 13:21:00,
2013-08-18 09:26:00,57.6,52.1,30.29,SE,135,0.0,2.0,82,0.00,,,0.00,WUHU216HW,2013-08-18 13:26:00,
2013-08-18 09:31:00,57.6,52.1,30.29,SSE,158,1.1,1.8,82,0.00,,,0.00,WUHU216HW,2013-08-18 13:31:00,
2013-08-18 09:36:00,58.0,52.5,30.29,SSE,158,1.8,1.8,82,0.00,,,0.00,WUHU216HW,2013-08-18 13:36:00,
2013-08-18 09:41:00,59.0,53.3,30.29,NW,315,0.4,1.8,81,0.00,,,0.00,WUHU216HW,2013-08-18 13:41:00,
2013-08-18 09:46:00,59.6,53.5,30.29,SE,135,1.8,1.8,80,0.00,,,0.00,WUHU216HW,2013-08-18 13:46:00,
2013-08-18 09:51:00,60.1,54.0,30.28,SSE,158,1.1,1.8,80,0.00,,,0.00,WUHU216HW,2013-08-18 13:51:00,
2013-08-18 09:56:00,60.5,53.3,30.28,NW,315,0.7,1.8,77,0.00,,,0.00,WUHU216HW,2013-08-18 13:56:00,
2013-08-18 10:01:00,60.7,54.2,30.28,South,180,1.1,1.1,79,0.00,,,0.00,WUHU216HW,2013-08-18 14:01:00,
2013-08-18 10:06:00,61.7,54.8,30.28,SE,135,1.3,1.3,78,0.00,,,0.00,WUHU216HW,2013-08-18 14:06:00,
2013-08-18 10:11:00,62.5,54.7,30.28,East,90,0.2,1.8,76,0.00,,,0.00,WUHU216HW,2013-08-18 14:11:00,
2013-08-18 10:16:00,62.8,55.1,30.28,ESE,113,0.9,1.8,76,0.00,,,0.00,WUHU216HW,2013-08-18 14:16:00,
2013-08-18 10:21:00,63.4,54.9,30.28,ENE,68,1.6,2.0,74,0.00,,,0.00,WUHU216HW,2013-08-18 14:21:00,
2013-08-18 10:26:00,64.3,56.2,30.28,ENE,68,1.1,2.0,75,0.00,,,0.00,WUHU216HW,2013-08-18 14:26:00,
2013-08-18 10:31:00,65.3,56.8,30.28,SW,225,2.0,2.7,74,0.00,,,0.00,WUHU216HW,2013-08-18 14:31:00,
2013-08-18 10:36:00,66.1,56.8,30.28,WNW,293,0.4,2.7,72,0.00,,,0.00,WUHU216HW,2013-08-18 14:36:00,
2013-08-18 10:41:00,66.2,56.2,30.28,WNW,293,0.2,3.8,70,0.00,,,0.00,WUHU216HW,2013-08-18 14:41:00,
2013-08-18 10:46:00,66.6,56.9,30.28,West,270,1.3,3.8,71,0.00,,,0.00,WUHU216HW,2013-08-18 14:46:00,
2013-08-18 10:51:00,67.0,56.9,30.28,WNW,293,0.4,2.7,70,0.00,,,0.00,WUHU216HW,2013-08-18 14:51:00,
2013-08-18 10:56:00,67.5,57.0,30.27,NNW,338,0.4,3.4,69,0.00,,,0.00,WUHU216HW,2013-08-18 14:56:00,
2013-08-18 11:01:00,68.2,57.7,30.27,NNW,338,0.2,3.4,69,0.00,,,0.00,WUHU216HW,2013-08-18 15:01:00,
2013-08-18 11:06:00,69.1,57.2,30.27,ENE,68,1.1,2.9,66,0.00,,,0.00,WUHU216HW,2013-08-18 15:06:00,
2013-08-18 11:11:00,70.0,58.5,30.27,SSE,158,2.7,2.9,67,0.00,,,0.00,WUHU216HW,2013-08-18 15:11:00,
2013-08-18 11:16:00,71.1,58.7,30.27,SSW,203,2.5,4.7,65,0.00,,,0.00,WUHU216HW,2013-08-18 15:16:00,
2013-08-18 11:21:00,71.5,59.0,30.26,SSE,158,4.5,5.4,65,0.00,,,0.00,WUHU216HW,2013-08-18 15:21:00,
2013-08-18 11:26:00,72.0,59.1,30.26,South,180,1.1,5.4,64,0.00,,,0.00,WUHU216HW,2013-08-18 15:26:00,
2013-08-18 11:31:00,72.7,59.8,30.26,South,180,3.6,4.7,64,0.00,,,0.00,WUHU216HW,2013-08-18 15:31:00,
2013-08-18 11:36:00,73.4,60.0,30.26,SE,135,1.8,4.7,63,0.00,,,0.00,WUHU216HW,2013-08-18 15:36:00,
2013-08-18 11:41:00,73.8,59.0,30.26,SSE,158,4.0,4.7,60,0.00,,,0.00,WUHU216HW,2013-08-18 15:41:00,
2013-08-18 11:46:00,73.6,58.3,30.26,SSW,203,3.1,6.3,59,0.00,,,0.00,WUHU216HW,2013-08-18 15:46:00,
2013-08-18 11:51:00,73.8,57.5,30.26,South,180,3.1,6.9,57,0.00,,,0.00,WUHU216HW,2013-08-18 15:51:00,
2013-08-18 11:56:00,73.8,58.1,30.26,SSE,158,5.4,6.9,58,0.00,,,0.00,WUHU216HW,2013-08-18 15:56:00,
2013-08-18 12:01:00,74.3,58.6,30.25,SSE,158,4.9,6.9,58,0.00,,,0.00,WUHU216HW,2013-08-18 16:01:00,
2013-08-18 12:06:00,75.1,58.8,30.25,SSW,203,6.3,6.9,57,0.00,,,0.00,WUHU216HW,2013-08-18 16:06:00,
2013-08-18 12:11:00,75.4,59.7,30.25,South,180,4.0,8.1,58,0.00,,,0.00,WUHU216HW,2013-08-18 16:11:00,
2013-08-18 12:16:00,76.1,59.8,30.25,SE,135,5.1,8.1,57,0.00,,,0.00,WUHU216HW,2013-08-18 16:16:00,
2013-08-18 12:21:00,76.5,59.6,30.25,SE,135,3.6,7.4,56,0.00,,,0.00,WUHU216HW,2013-08-18 16:21:00,
2013-08-18 12:26:00,76.7,59.8,30.24,SSW,203,6.0,7.4,56,0.00,,,0.00,WUHU216HW,2013-08-18 16:26:00,
2013-08-18 12:31:00,76.7,59.2,30.23,SSW,203,4.9,6.3,55,0.00,,,0.00,WUHU216HW,2013-08-18 16:31:00,
2013-08-18 12:36:00,77.0,60.1,30.23,SE,135,7.4,7.4,56,0.00,,,0.00,WUHU216HW,2013-08-18 16:36:00,
2013-08-18 12:41:00,77.4,60.4,30.23,South,180,4.0,7.4,56,0.00,,,0.00,WUHU216HW,2013-08-18 16:41:00,
2013-08-18 12:46:00,77.0,58.6,30.23,SSW,203,4.5,7.2,53,0.00,,,0.00,WUHU216HW,2013-08-18 16:46:00,
2013-08-18 12:51:00,77.0,58.1,30.23,SSW,203,4.7,6.9,52,0.00,,,0.00,WUHU216HW,2013-08-18 16:51:00,
2013-08-18 12:56:00,77.0,58.1,30.23,SSW,203,7.8,7.8,52,0.00,,,0.00,WUHU216HW,2013-08-18 16:56:00,
2013-08-18 13:01:00,76.7,58.2,30.23,SSE,158,5.4,8.3,53,0.00,,,0.00,WUHU216HW,2013-08-18 17:01:00,
2013-08-18 13:06:00,77.2,59.2,30.23,SSW,203,4.3,8.3,54,0.00,,,0.00,WUHU216HW,2013-08-18 17:06:00,
2013-08-18 13:11:00,77.4,59.0,30.23,SE,135,1.8,8.3,53,0.00,,,0.00,WUHU216HW,2013-08-18 17:11:00,
2013-08-18 13:16:00,77.6,58.6,30.22,SSW,203,5.8,6.0,52,0.00,,,0.00,WUHU216HW,2013-08-18 17:16:00,
2013-08-18 13:21:00,77.6,59.0,30.22,South,180,6.3,8.3,53,0.00,,,0.00,WUHU216HW,2013-08-18 17:21:00,
2013-08-18 13:26:00,77.6,58.6,30.22,SE,135,6.5,8.3,52,0.00,,,0.00,WUHU216HW,2013-08-18 17:26:00,
2013-08-18 13:31:00,77.4,58.4,30.22,SE,135,4.0,7.6,52,0.00,,,0.00,WUHU216HW,2013-08-18 17:31:00,
2013-08-18 13:36:00,77.8,59.2,30.21,SSE,158,7.4,7.6,53,0.00,,,0.00,WUHU216HW,2013-08-18 17:36:00,
2013-08-18 13:41:00,77.9,58.9,30.21,SE,135,6.3,8.3,52,0.00,,,0.00,WUHU216HW,2013-08-18 17:41:00,
2013-08-18 13:46:00,78.3,59.2,30.21,SE,135,3.8,8.3,52,0.00,,,0.00,WUHU216HW,2013-08-18 17:46:00,
2013-08-18 13:51:00,78.8,59.2,30.20,SSW,203,4.3,7.4,51,0.00,,,0.00,WUHU216HW,2013-08-18 17:51:00,
2013-08-18 13:56:00,79.0,58.2,30.20,SSE,158,6.3,8.3,49,0.00,,,0.00,WUHU216HW,2013-08-18 17:56:00,
2013-08-18 14:01:00,79.0,58.2,30.20,SW,225,2.5,8.3,49,0.00,,,0.00,WUHU216HW,2013-08-18 18:01:00,
2013-08-18 14:06:00,79.4,58.6,30.20,SE,135,3.4,8.5,49,0.00,,,0.00,WUHU216HW,2013-08-18 18:06:00,
2013-08-18 14:11:00,79.4,58.0,30.20,SW,225,7.6,8.5,48,0.00,,,0.00,WUHU216HW,2013-08-18 18:11:00,
2013-08-18 14:16:00,79.2,57.8,30.20,SE,135,4.7,7.6,48,0.00,,,0.00,WUHU216HW,2013-08-18 18:16:00,
2013-08-18 14:21:00,79.6,58.2,30.19,South,180,6.3,7.6,48,0.00,,,0.00,WUHU216HW,2013-08-18 18:21:00,
2013-08-18 14:26:00,79.9,57.8,30.19,South,180,3.8,6.3,47,0.00,,,0.00,WUHU216HW,2013-08-18 18:26:00,
2013-08-18 14:31:00,79.9,58.4,30.19,South,180,4.0,6.3,48,0.00,,,0.00,WUHU216HW,2013-08-18 18:31:00,
2013-08-18 14:36:00,79.6,57.5,30.19,South,180,5.4,8.9,47,0.00,,,0.00,WUHU216HW,2013-08-18 18:36:00,
2013-08-18 14:41:00,79.7,58.2,30.19,SSE,158,6.3,8.9,48,0.00,,,0.00,WUHU216HW,2013-08-18 18:41:00,
2013-08-18 14:46:00,79.7,56.4,30.19,SE,135,4.7,8.9,45,0.00,,,0.00,WUHU216HW,2013-08-18 18:46:00,
2013-08-18 14:51:00,79.6,57.5,30.18,SE,135,6.9,9.2,47,0.00,,,0.00,WUHU216HW,2013-08-18 18:51:00,
2013-08-18 14:56:00,79.7,57.7,30.18,SSE,158,6.3,9.4,47,0.00,,,0.00,WUHU216HW,2013-08-18 18:56:00,
2013-08-18 15:01:00,79.7,57.1,30.18,South,180,5.8,9.4,46,0.00,,,0.00,WUHU216HW,2013-08-18 19:01:00,
2013-08-18 15:06:00,79.7,55.8,30.18,SSW,203,4.9,9.2,44,0.00,,,0.00,WUHU216HW,2013-08-18 19:06:00,
2013-08-18 15:11:00,79.0,55.8,30.17,SSE,158,6.9,9.2,45,0.00,,,0.00,WUHU216HW,2013-08-18 19:11:00,
2013-08-18 15:16:00,79.2,56.0,30.17,SE,135,6.7,9.8,45,0.00,,,0.00,WUHU216HW,2013-08-18 19:16:00,
2013-08-18 15:21:00,79.7,56.4,30.17,SE,135,6.7,9.8,45,0.00,,,0.00,WUHU216HW,2013-08-18 19:21:00,
2013-08-18 15:26:00,79.7,55.2,30.17,South,180,5.4,8.7,43,0.00,,,0.00,WUHU216HW,2013-08-18 19:26:00,
2013-08-18 15:31:00,79.6,55.6,30.16,SSE,158,6.7,10.3,44,0.00,,,0.00,WUHU216HW,2013-08-18 19:31:00,
2013-08-18 15:36:00,79.7,55.8,30.16,SSW,203,5.4,10.5,44,0.00,,,0.00,WUHU216HW,2013-08-18 19:36:00,
2013-08-18 15:41:00,79.2,56.0,30.16,South,180,6.0,10.5,45,0.00,,,0.00,WUHU216HW,2013-08-18 19:41:00,
2013-08-18 15:46:00,79.6,56.3,30.16,SE,135,7.4,7.8,45,0.00,,,0.00,WUHU216HW,2013-08-18 19:46:00,
2013-08-18 15:51:00,79.6,56.9,30.16,SSE,158,6.0,8.1,46,0.00,,,0.00,WUHU216HW,2013-08-18 19:51:00,
2013-08-18 15:56:00,79.4,56.7,30.16,SE,135,3.4,8.1,46,0.00,,,0.00,WUHU216HW,2013-08-18 19:56:00,
2013-08-18 16:01:00,79.4,56.7,30.15,SE,135,4.7,7.4,46,0.00,,,0.00,WUHU216HW,2013-08-18 20:01:00,
2013-08-18 16:06:00,79.6,57.5,30.15,South,180,6.3,7.6,47,0.00,,,0.00,WUHU216HW,2013-08-18 20:06:00,
2013-08-18 16:11:00,79.7,57.7,30.15,SE,135,3.6,9.2,47,0.00,,,0.00,WUHU216HW,2013-08-18 20:11:00,
2013-08-18 16:16:00,80.3,56.4,30.15,SW,225,4.0,9.2,44,0.00,,,0.00,WUHU216HW,2013-08-18 20:16:00,
2013-08-18 16:21:00,79.6,56.3,30.15,SSE,158,5.4,6.3,45,0.00,,,0.00,WUHU216HW,2013-08-18 20:21:00,
2013-08-18 16:26:00,79.2,56.0,30.15,South,180,7.4,8.1,45,0.00,,,0.00,WUHU216HW,2013-08-18 20:26:00,
2013-08-18 16:31:00,78.5,55.9,30.15,SSE,158,6.5,8.5,46,0.00,,,0.00,WUHU216HW,2013-08-18 20:31:00,
2013-08-18 16:36:00,78.1,56.2,30.15,South,180,2.7,9.2,47,0.00,,,0.00,WUHU216HW,2013-08-18 20:36:00,
2013-08-18 16:41:00,78.3,56.3,30.15,South,180,4.5,9.2,47,0.00,,,0.00,WUHU216HW,2013-08-18 20:41:00,
2013-08-18 16:46:00,77.9,56.1,30.15,South,180,7.6,8.9,47,0.00,,,0.00,WUHU216HW,2013-08-18 20:46:00,
2013-08-18 16:51:00,78.1,56.2,30.15,South,180,4.5,9.2,47,0.00,,,0.00,WUHU216HW,2013-08-18 20:51:00,
2013-08-18 16:56:00,78.1,56.8,30.14,SSE,158,6.3,9.2,48,0.00,,,0.00,WUHU216HW,2013-08-18 20:56:00,
2013-08-18 17:01:00,77.9,56.6,30.14,SSW,203,5.4,8.1,48,0.00,,,0.00,WUHU216HW,2013-08-18 21:01:00,
2013-08-18 17:06:00,77.8,56.5,30.14,SE,135,5.6,8.1,48,0.00,,,0.00,WUHU216HW,2013-08-18 21:06:00,
2013-08-18 17:11:00,77.6,56.4,30.14,South,180,5.8,8.7,48,0.00,,,0.00,WUHU216HW,2013-08-18 21:11:00,
2013-08-18 17:16:00,77.0,55.8,30.14,SSW,203,4.0,8.7,48,0.00,,,0.00,WUHU216HW,2013-08-18 21:16:00,
2013-08-18 17:21:00,77.0,57.1,30.14,SSE,158,5.4,8.3,50,0.00,,,0.00,WUHU216HW,2013-08-18 21:21:00,
2013-08-18 17:26:00,77.0,56.4,30.13,SSW,203,3.4,8.3,49,0.00,,,0.00,WUHU216HW,2013-08-18 21:26:00,
2013-08-18 17:31:00,77.0,57.1,30.13,South,180,5.6,7.4,50,0.00,,,0.00,WUHU216HW,2013-08-18 21:31:00,
2013-08-18 17:36:00,76.5,56.6,30.13,SSE,158,4.0,7.2,50,0.00,,,0.00,WUHU216HW,2013-08-18 21:36:00,
2013-08-18 17:41:00,76.1,56.3,30.13,SSE,158,6.5,7.2,50,0.00,,,0.00,WUHU216HW,2013-08-18 21:41:00,
2013-08-18 17:46:00,76.0,56.6,30.13,SSW,203,3.8,6.5,51,0.00,,,0.00,WUHU216HW,2013-08-18 21:46:00,
2013-08-18 17:51:00,75.6,56.3,30.13,SSW,203,4.0,6.5,51,0.00,,,0.00,WUHU216HW,2013-08-18 21:51:00,
2013-08-18 17:56:00,75.4,56.6,30.12,SSW,203,4.0,6.0,52,0.00,,,0.00,WUHU216HW,2013-08-18 21:56:00,
2013-08-18 18:01:00,75.2,56.4,30.12,SSW,203,3.4,6.0,52,0.00,,,0.00,WUHU216HW,2013-08-18 22:01:00,
2013-08-18 18:06:00,75.2,57.0,30.12,South,180,3.8,4.7,53,0.00,,,0.00,WUHU216HW,2013-08-18 22:06:00,
2013-08-18 18:11:00,75.1,57.2,30.12,SSE,158,3.4,4.9,54,0.00,,,0.00,WUHU216HW,2013-08-18 22:11:00,
2013-08-18 18:16:00,74.9,57.6,30.12,SSE,158,2.9,4.9,55,0.00,,,0.00,WUHU216HW,2013-08-18 22:16:00,
2013-08-18 18:21:00,74.7,58.0,30.12,South,180,3.1,4.9,56,0.00,,,0.00,WUHU216HW,2013-08-18 22:21:00,
2013-08-18 18:26:00,74.2,57.4,30.12,SSE,158,2.5,4.9,56,0.00,,,0.00,WUHU216HW,2013-08-18 22:26:00,
2013-08-18 18:31:00,73.8,57.5,30.12,SSE,158,3.4,4.5,57,0.00,,,0.00,WUHU216HW,2013-08-18 22:31:00,
2013-08-18 18:36:00,73.8,58.1,30.11,South,180,3.1,4.5,58,0.00,,,0.00,WUHU216HW,2013-08-18 22:36:00,
2013-08-18 18:40:00,74.2,58.4,30.11,SSE,158,4.3,4.3,58,0.00,,,0.00,WUHU216HW,2013-08-18 22:40:00,
2013-08-18 18:46:00,74.0,57.7,30.11,South,180,3.4,4.3,57,0.00,,,0.00,WUHU216HW,2013-08-18 22:46:00,
2013-08-18 18:51:00,73.6,57.3,30.11,SSW,203,4.0,5.4,57,0.00,,,0.00,WUHU216HW,2013-08-18 22:51:00,
2013-08-18 18:56:00,73.4,57.7,30.11,SSW,203,2.9,5.4,58,0.00,,,0.00,WUHU216HW,2013-08-18 22:56:00,
2013-08-18 19:01:00,73.1,57.9,30.11,South,180,3.1,4.0,59,0.00,,,0.00,WUHU216HW,2013-08-18 23:01:00,
2013-08-18 19:06:00,72.7,57.5,30.10,SSW,203,2.9,3.4,59,0.00,,,0.00,WUHU216HW,2013-08-18 23:06:00,
2013-08-18 19:11:00,72.5,57.3,30.11,SSW,203,1.8,3.1,59,0.00,,,0.00,WUHU216HW,2013-08-18 23:11:00,
2013-08-18 19:15:00,72.4,57.7,30.10,SW,225,2.9,4.0,60,0.00,,,0.00,WUHU216HW,2013-08-18 23:15:00,
2013-08-18 19:21:00,72.0,57.8,30.10,SSW,203,2.0,4.0,61,0.00,,,0.00,WUHU216HW,2013-08-18 23:21:00,
2013-08-18 19:26:00,71.3,58.1,30.11,SSW,203,1.1,2.9,63,0.00,,,0.00,WUHU216HW,2013-08-18 23:26:00,
2013-08-18 19:31:00,70.6,57.3,30.10,SSW,203,0.0,2.2,63,0.00,,,0.00,WUHU216HW,2013-08-18 23:31:00,
2013-08-18 19:35:00,70.2,57.4,30.10,WSW,248,0.0,1.8,64,0.00,,,0.00,WUHU216HW,2013-08-18 23:35:00,
2013-08-18 19:40:00,69.3,57.0,30.11,NW,315,0.0,0.9,65,0.00,,,0.00,WUHU216HW,2013-08-18 23:40:00,
2013-08-18 19:45:00,68.4,56.6,30.11,WNW,293,0.0,0.4,66,0.00,,,0.00,WUHU216HW,2013-08-18 23:45:00,
2013-08-18 19:50:00,68.0,57.1,30.11,WNW,293,0.0,0.0,68,0.00,,,0.00,WUHU216HW,2013-08-18 23:50:00,
2013-08-18 19:56:00,67.1,57.1,30.11,WNW,293,0.0,0.0,70,0.00,,,0.00,WUHU216HW,2013-08-18 23:56:00,
2013-08-18 20:01:00,66.6,56.5,30.11,WNW,293,0.0,0.0,70,0.00,,,0.00,WUHU216HW,2013-08-19 00:01:00,
2013-08-18 20:06:00,66.1,56.3,30.11,WNW,293,0.0,0.0,71,0.00,,,0.00,WUHU216HW,2013-08-19 00:06:00,
2013-08-18 20:11:00,65.7,56.1,30.11,West,270,0.0,0.0,71,0.00,,,0.00,WUHU216HW,2013-08-19 00:11:00,
2013-08-18 20:16:00,65.2,55.9,30.10,SW,225,0.0,0.0,72,0.00,,,0.00,WUHU216HW,2013-08-19 00:16:00,
2013-08-18 20:21:00,64.6,55.8,30.11,SW,225,0.0,0.0,73,0.00,,,0.00,WUHU216HW,2013-08-19 00:21:00,
2013-08-18 20:26:00,64.3,55.8,30.10,SW,225,0.0,0.0,74,0.00,,,0.00,WUHU216HW,2013-08-19 00:26:00,
2013-08-18 20:31:00,63.7,55.3,30.10,SW,225,0.0,0.0,74,0.00,,,0.00,WUHU216HW,2013-08-19 00:31:00,
2013-08-18 20:36:00,63.2,55.1,30.10,SW,225,0.0,0.0,75,0.00,,,0.00,WUHU216HW,2013-08-19 00:36:00,
2013-08-18 20:41:00,62.8,55.1,30.11,West,270,0.0,0.0,76,0.00,,,0.00,WUHU216HW,2013-08-19 00:41:00,
2013-08-18 20:46:00,62.3,54.5,30.11,NNE,23,0.7,0.7,76,0.00,,,0.00,WUHU216HW,2013-08-19 00:46:00,
2013-08-18 20:51:00,61.7,54.5,30.11,NNE,23,0.0,0.9,77,0.00,,,0.00,WUHU216HW,2013-08-19 00:51:00,
2013-08-18 20:56:00,61.2,54.4,30.10,NNE,23,0.0,0.9,78,0.00,,,0.00,WUHU216HW,2013-08-19 00:56:00,
2013-08-18 21:01:00,60.8,54.0,30.10,NNE,23,0.0,0.4,78,0.00,,,0.00,WUHU216HW,2013-08-19 01:01:00,
2013-08-18 21:06:00,60.5,54.0,30.11,NNW,338,0.2,0.7,79,0.00,,,0.00,WUHU216HW,2013-08-19 01:06:00,
2013-08-18 21:11:00,60.3,53.8,30.10,SSW,203,0.7,0.7,79,0.00,,,0.00,WUHU216HW,2013-08-19 01:11:00,
2013-08-18 21:16:00,60.1,53.6,30.10,SSW,203,0.0,0.7,79,0.00,,,0.00,WUHU216HW,2013-08-19 01:16:00,
2013-08-18 21:21:00,59.9,54.2,30.10,NW,315,0.0,0.7,81,0.00,,,0.00,WUHU216HW,2013-08-19 01:21:00,
2013-08-18 21:26:00,59.9,54.2,30.10,WNW,293,0.4,2.0,81,0.00,,,0.00,WUHU216HW,2013-08-19 01:26:00,
2013-08-18 21:31:00,59.8,54.0,30.10,NNE,23,0.7,2.0,81,0.00,,,0.00,WUHU216HW,2013-08-19 01:31:00,
2013-08-18 21:36:00,59.4,53.7,30.10,North,0,0.4,1.1,81,0.00,,,0.00,WUHU216HW,2013-08-19 01:36:00,
2013-08-18 21:41:00,58.9,53.1,30.10,NNW,338,0.0,1.1,81,0.00,,,0.00,WUHU216HW,2013-08-19 01:41:00,
2013-08-18 21:46:00,58.5,53.0,30.10,North,0,0.9,0.9,82,0.00,,,0.00,WUHU216HW,2013-08-19 01:46:00,
2013-08-18 21:51:00,58.0,52.8,30.10,NNE,23,1.3,1.3,83,0.00,,,0.00,WUHU216HW,2013-08-19 01:51:00,
2013-08-18 21:56:00,57.6,52.5,30.10,North,0,0.4,1.3,83,0.00,,,0.00,WUHU216HW,2013-08-19 01:56:00,
2013-08-18 22:01:00,57.4,52.3,30.10,North,0,0.0,1.3,83,0.00,,,0.00,WUHU216HW,2013-08-19 02:01:00,
2013-08-18 22:06:00,57.1,51.9,30.10,North,0,0.0,0.9,83,0.00,,,0.00,WUHU216HW,2013-08-19 02:06:00,
2013-08-18 22:11:00,56.9,51.8,30.10,North,0,0.0,0.9,83,0.00,,,0.00,WUHU216HW,2013-08-19 02:11:00,
2013-08-18 22:16:00,56.5,51.4,30.10,North,0,0.0,0.0,83,0.00,,,0.00,WUHU216HW,2013-08-19 02:16:00,
2013-08-18 22:21:00,56.5,51.4,30.10,NNW,338,1.1,1.1,83,0.00,,,0.00,WUHU216HW,2013-08-19 02:21:00,
2013-08-18 22:26:00,56.3,51.2,30.10,NNW,338,0.0,1.1,83,0.00,,,0.00,WUHU216HW,2013-08-19 02:26:00,
2013-08-18 22:31:00,56.2,51.0,30.09,NNW,338,0.0,0.7,83,0.00,,,0.00,WUHU216HW,2013-08-19 02:31:00,
2013-08-18 22:36:00,56.0,51.1,30.09,NNW,338,0.0,0.0,84,0.00,,,0.00,WUHU216HW,2013-08-19 02:36:00,
2013-08-18 22:41:00,55.8,50.7,30.09,NNW,338,0.0,0.0,83,0.00,,,0.00,WUHU216HW,2013-08-19 02:41:00,
2013-08-18 22:46:00,55.8,50.9,30.09,NNW,338,0.0,0.0,84,0.00,,,0.00,WUHU216HW,2013-08-19 02:46:00,
2013-08-18 22:51:00,55.4,50.6,30.09,NNW,338,0.0,0.0,84,0.00,,,0.00,WUHU216HW,2013-08-19 02:51:00,
2013-08-18 22:56:00,55.6,50.8,30.09,South,180,0.4,0.4,84,0.00,,,0.00,WUHU216HW,2013-08-19 02:56:00,
2013-08-18 23:01:00,55.6,50.8,30.09,South,180,0.0,0.4,84,0.00,,,0.00,WUHU216HW,2013-08-19 03:01:00,
2013-08-18 23:06:00,55.6,50.8,30.09,NNE,23,0.4,0.7,84,0.00,,,0.00,WUHU216HW,2013-08-19 03:06:00,
2013-08-18 23:11:00,55.3,50.8,30.09,NNE,23,0.7,1.1,85,0.00,,,0.00,WUHU216HW,2013-08-19 03:11:00,
2013-08-18 23:16:00,55.1,51.0,30.09,NE,45,0.7,1.3,86,0.00,,,0.00,WUHU216HW,2013-08-19 03:16:00,
2013-08-18 23:21:00,54.9,50.8,30.10,NNE,23,0.0,1.3,86,0.00,,,0.00,WUHU216HW,2013-08-19 03:21:00,
2013-08-18 23:26:00,54.7,50.6,30.10,NNW,338,0.0,0.7,86,0.00,,,0.00,WUHU216HW,2013-08-19 03:26:00,
2013-08-18 23:31:00,54.4,50.2,30.10,North,0,0.4,1.3,86,0.00,,,0.00,WUHU216HW,2013-08-19 03:31:00,
2013-08-18 23:36:00,54.2,50.0,30.09,North,0,0.0,1.3,86,0.00,,,0.00,WUHU216HW,2013-08-19 03:36:00,
2013-08-18 23:41:00,54.0,49.9,30.09,North,0,0.0,0.7,86,0.00,,,0.00,WUHU216HW,2013-08-19 03:41:00,
2013-08-18 23:46:00,53.8,49.7,30.10,NW,315,0.4,0.7,86,0.00,,,0.00,WUHU216HW,2013-08-19 03:46:00,
2013-08-18 23:51:00,53.6,49.5,30.09,NNW,338,0.0,0.7,86,0.00,,,0.00,WUHU216HW,2013-08-19 03:51:00,
2013-08-18 23:56:00,53.6,49.5,30.09,NNE,23,1.1,1.1,86,0.00,,,0.00,WUHU216HW,2013-08-19 03:56:00,